JST606 YMAV-YSSY
Flight info
| Callsign | JST606 |
|---|---|
| Flight time | N/A |
| Altitude | 33000 |
| Route | ML H129 DOSEL Y59 RIVET |
| Aircraft | A320/M-SDE3FGHIRWY/LB1 |
Departure
| Time | 2026-04-21 01:14 |
|---|---|
| Airport | Melbourne Avalon International Airport (YMAV) |
Arrival
| Time | N/A |
|---|---|
| Airport | Sydney Kingsford Smith International Airport (YSSY) |
| Time | Latitude | Longitude | Altitude | Speed | Heading |
|---|---|---|---|---|---|
| 2026-04-21 01:02 | -38.02722 | 144.47316 | 36 ft | 0 kts | 8° |
| 2026-04-21 01:05 | -38.02727 | 144.47315 | 36 ft | 2 kts | 9° |
| 2026-04-21 01:05 | -38.02746 | 144.47311 | 34 ft | 3 kts | 15° |
| 2026-04-21 01:05 | -38.02765 | 144.47303 | 34 ft | 3 kts | 25° |
| 2026-04-21 01:05 | -38.02782 | 144.47290 | 33 ft | 3 kts | 45° |
| 2026-04-21 01:06 | -38.02792 | 144.47272 | 36 ft | 2 kts | 86° |
| 2026-04-21 01:06 | -38.02792 | 144.47261 | 36 ft | 1 kts | 97° |
| 2026-04-21 01:06 | -38.02792 | 144.47260 | 36 ft | 0 kts | 97° |
| 2026-04-21 01:08 | -38.02796 | 144.47303 | 36 ft | 10 kts | 97° |
| 2026-04-21 01:08 | -38.02844 | 144.47366 | 36 ft | 12 kts | 182° |
| 2026-04-21 01:08 | -38.02940 | 144.47350 | 36 ft | 18 kts | 187° |
| 2026-04-21 01:09 | -38.03094 | 144.47313 | 35 ft | 27 kts | 198° |
| 2026-04-21 01:09 | -38.03231 | 144.47151 | 34 ft | 28 kts | 231° |
| 2026-04-21 01:09 | -38.03406 | 144.47039 | 36 ft | 30 kts | 188° |
| 2026-04-21 01:09 | -38.03544 | 144.47021 | 35 ft | 31 kts | 186° |
| 2026-04-21 01:10 | -38.03759 | 144.46978 | 36 ft | 32 kts | 184° |
| 2026-04-21 01:10 | -38.04062 | 144.46932 | 36 ft | 34 kts | 190° |
| 2026-04-21 01:10 | -38.04294 | 144.46891 | 35 ft | 35 kts | 187° |
| 2026-04-21 01:10 | -38.04496 | 144.46859 | 36 ft | 27 kts | 187° |
| 2026-04-21 01:11 | -38.04629 | 144.46824 | 36 ft | 16 kts | 216° |
| 2026-04-21 01:11 | -38.04643 | 144.46774 | 37 ft | 0 kts | 270° |
| 2026-04-21 01:12 | -38.04643 | 144.46767 | 37 ft | 3 kts | 272° |
| 2026-04-21 01:12 | -38.04637 | 144.46704 | 36 ft | 10 kts | 277° |
| 2026-04-21 01:12 | -38.04612 | 144.46625 | 36 ft | 10 kts | 345° |
| 2026-04-21 01:13 | -38.04520 | 144.46637 | 34 ft | 26 kts | 7° |
| 2026-04-21 01:13 | -38.04095 | 144.46712 | 35 ft | 94 kts | 7° |
| 2026-04-21 01:13 | -38.03279 | 144.46849 | 38 ft | 141 kts | 8° |
| 2026-04-21 01:13 | -38.02242 | 144.47028 | 335 ft | 153 kts | 10° |
| 2026-04-21 01:14 | -38.01213 | 144.47260 | 955 ft | 149 kts | 20° |
| 2026-04-21 01:14 | -38.00303 | 144.47786 | 1582 ft | 142 kts | 28° |
| 2026-04-21 01:14 | -37.99461 | 144.48449 | 2039 ft | 145 kts | 31° |
| 2026-04-21 01:14 | -37.98560 | 144.49205 | 2209 ft | 166 kts | 32° |
| 2026-04-21 01:15 | -37.97522 | 144.50080 | 2302 ft | 193 kts | 31° |
| 2026-04-21 01:15 | -37.95992 | 144.51385 | 2837 ft | 210 kts | 32° |
| 2026-04-21 01:15 | -37.94883 | 144.52706 | 3149 ft | 234 kts | 54° |
| 2026-04-21 01:15 | -37.94312 | 144.53956 | 3388 ft | 251 kts | 59° |
| 2026-04-21 01:16 | -37.93517 | 144.55978 | 3989 ft | 265 kts | 62° |
| 2026-04-21 01:16 | -37.92702 | 144.58093 | 4826 ft | 270 kts | 62° |
| 2026-04-21 01:16 | -37.91868 | 144.60231 | 5663 ft | 274 kts | 62° |
| 2026-04-21 01:16 | -37.91016 | 144.62401 | 6532 ft | 277 kts | 62° |
| 2026-04-21 01:17 | -37.90152 | 144.64595 | 7332 ft | 280 kts | 62° |
| 2026-04-21 01:17 | -37.88978 | 144.67543 | 8356 ft | 286 kts | 62° |
| 2026-04-21 01:17 | -37.88364 | 144.69066 | 8878 ft | 289 kts | 62° |
| 2026-04-21 01:17 | -37.87431 | 144.71341 | 9623 ft | 294 kts | 62° |
| 2026-04-21 01:18 | -37.86440 | 144.73636 | 10251 ft | 305 kts | 56° |
| 2026-04-21 01:18 | -37.84936 | 144.75569 | 10565 ft | 318 kts | 36° |
| 2026-04-21 01:18 | -37.83117 | 144.77265 | 10927 ft | 336 kts | 36° |
| 2026-04-21 01:18 | -37.81205 | 144.79063 | 11355 ft | 347 kts | 37° |
| 2026-04-21 01:19 | -37.79259 | 144.80906 | 11960 ft | 352 kts | 37° |
| 2026-04-21 01:19 | -37.77287 | 144.82774 | 12597 ft | 357 kts | 37° |
| 2026-04-21 01:19 | -37.75286 | 144.84666 | 13225 ft | 361 kts | 37° |
| 2026-04-21 01:19 | -37.73261 | 144.86580 | 13849 ft | 366 kts | 37° |
| 2026-04-21 01:20 | -37.71204 | 144.88519 | 14396 ft | 372 kts | 37° |
| 2026-04-21 01:20 | -37.69123 | 144.90480 | 14958 ft | 375 kts | 37° |
| 2026-04-21 01:20 | -37.67018 | 144.92458 | 15531 ft | 379 kts | 37° |
| 2026-04-21 01:20 | -37.64896 | 144.94449 | 16103 ft | 382 kts | 38° |
| 2026-04-21 01:21 | -37.62785 | 144.96430 | 16659 ft | 385 kts | 38° |
| 2026-04-21 01:21 | -37.60629 | 144.98457 | 17222 ft | 388 kts | 38° |
| 2026-04-21 01:21 | -37.58456 | 145.00499 | 17788 ft | 392 kts | 38° |
| 2026-04-21 01:21 | -37.56256 | 145.02559 | 18354 ft | 396 kts | 38° |
| 2026-04-21 01:22 | -37.54036 | 145.04637 | 18885 ft | 399 kts | 38° |
| 2026-04-21 01:22 | -37.51799 | 145.06730 | 19411 ft | 402 kts | 38° |
| 2026-04-21 01:22 | -37.49544 | 145.08837 | 19957 ft | 405 kts | 38° |
| 2026-04-21 01:22 | -37.47274 | 145.10955 | 20511 ft | 407 kts | 38° |
| 2026-04-21 01:23 | -37.44990 | 145.13083 | 21063 ft | 410 kts | 38° |
| 2026-04-21 01:23 | -37.42692 | 145.15226 | 21606 ft | 412 kts | 38° |
| 2026-04-21 01:23 | -37.40411 | 145.17350 | 22122 ft | 415 kts | 38° |
| 2026-04-21 01:23 | -37.38084 | 145.19519 | 22628 ft | 418 kts | 37° |
| 2026-04-21 01:24 | -37.35742 | 145.21698 | 23117 ft | 420 kts | 37° |
| 2026-04-21 01:24 | -37.33386 | 145.23888 | 23610 ft | 423 kts | 37° |
| 2026-04-21 01:24 | -37.31014 | 145.26093 | 24073 ft | 425 kts | 37° |
| 2026-04-21 01:24 | -37.28630 | 145.28307 | 24460 ft | 428 kts | 37° |
| 2026-04-21 01:25 | -37.26228 | 145.30535 | 24847 ft | 431 kts | 37° |
| 2026-04-21 01:25 | -37.23810 | 145.32774 | 25222 ft | 433 kts | 37° |
| 2026-04-21 01:25 | -37.21379 | 145.35025 | 25598 ft | 435 kts | 37° |
| 2026-04-21 01:25 | -37.18968 | 145.37256 | 25960 ft | 438 kts | 37° |
| 2026-04-21 01:26 | -37.16660 | 145.39750 | 26314 ft | 439 kts | 46° |
| 2026-04-21 01:26 | -37.14693 | 145.42682 | 26667 ft | 441 kts | 55° |
| 2026-04-21 01:26 | -37.12910 | 145.45819 | 27019 ft | 443 kts | 56° |
| 2026-04-21 01:26 | -37.11115 | 145.48967 | 27362 ft | 445 kts | 55° |
| 2026-04-21 01:27 | -37.09302 | 145.52128 | 27709 ft | 448 kts | 55° |
| 2026-04-21 01:27 | -37.07473 | 145.55300 | 28039 ft | 451 kts | 55° |
| 2026-04-21 01:27 | -37.05630 | 145.58491 | 28356 ft | 454 kts | 55° |
| 2026-04-21 01:27 | -37.03777 | 145.61704 | 28688 ft | 456 kts | 55° |
| 2026-04-21 01:28 | -37.01918 | 145.64932 | 29017 ft | 459 kts | 55° |
| 2026-04-21 01:28 | -37.00047 | 145.68177 | 29348 ft | 461 kts | 55° |
| 2026-04-21 01:28 | -36.98167 | 145.71433 | 29670 ft | 463 kts | 55° |
| 2026-04-21 01:28 | -36.96274 | 145.74705 | 29995 ft | 465 kts | 55° |
| 2026-04-21 01:29 | -36.94370 | 145.77991 | 30324 ft | 467 kts | 54° |
| 2026-04-21 01:29 | -36.92463 | 145.81281 | 30711 ft | 468 kts | 55° |
| 2026-04-21 01:29 | -36.90581 | 145.84531 | 31060 ft | 468 kts | 55° |
| 2026-04-21 01:29 | -36.88671 | 145.87825 | 31428 ft | 468 kts | 55° |
| 2026-04-21 01:30 | -36.86765 | 145.91111 | 31810 ft | 467 kts | 55° |
| 2026-04-21 01:30 | -36.84860 | 145.94396 | 32187 ft | 467 kts | 55° |
| 2026-04-21 01:30 | -36.82955 | 145.97677 | 32570 ft | 467 kts | 55° |
| 2026-04-21 01:30 | -36.81047 | 146.00955 | 32949 ft | 466 kts | 54° |
| 2026-04-21 01:31 | -36.79140 | 146.04225 | 33335 ft | 466 kts | 54° |
| 2026-04-21 01:31 | -36.77232 | 146.07496 | 33717 ft | 466 kts | 55° |
| 2026-04-21 01:31 | -36.75349 | 146.10721 | 34075 ft | 466 kts | 55° |
| 2026-04-21 01:31 | -36.73439 | 146.13987 | 34447 ft | 466 kts | 54° |
| 2026-04-21 01:32 | -36.71527 | 146.17245 | 34767 ft | 466 kts | 54° |
| 2026-04-21 01:32 | -36.69614 | 146.20499 | 35071 ft | 465 kts | 54° |
| 2026-04-21 01:32 | -36.67703 | 146.23751 | 35362 ft | 465 kts | 54° |
| 2026-04-21 01:32 | -36.65794 | 146.27002 | 35645 ft | 465 kts | 55° |
| 2026-04-21 01:33 | -36.63889 | 146.30253 | 35932 ft | 465 kts | 55° |
| 2026-04-21 01:33 | -36.61983 | 146.33505 | 36213 ft | 465 kts | 55° |
| 2026-04-21 01:33 | -36.60075 | 146.36751 | 36470 ft | 465 kts | 55° |
| 2026-04-21 01:33 | -36.58190 | 146.39951 | 36722 ft | 465 kts | 55° |
| 2026-04-21 01:34 | -36.56278 | 146.43193 | 36977 ft | 464 kts | 55° |
| 2026-04-21 01:34 | -36.55633 | 146.44287 | 37061 ft | 464 kts | 55° |